Time;durP1;ratioP1;P1;durP2;ratioP2;P2;SDS_P1;SDS_P2;PMS_P1;PMS_P2;Temp;Humidity;BMP_temperature;BMP_pressure;BME280_temperature;BME280_humidity;BME280_pressure;Samples;Min_cycle;Max_cycle;Signal;HPM_P1;HPM_P2
2023/12/09 00:01:46;;;;;;;2.42;2.22;;;;;;;;;;5004223;28;20200;-80
2023/12/09 00:04:11;;;;;;;2.92;2.60;;;;;;;;;;5005169;28;20044;-80
2023/12/09 00:06:36;;;;;;;5.85;2.45;;;;;;;;;;5007810;28;20379;-80
2023/12/09 00:09:03;;;;;;;6.93;2.88;;;;;;;;;;5013983;28;20085;-80
2023/12/09 00:11:28;;;;;;;6.40;2.22;;;;;;;;;;5003439;28;20034;-80
2023/12/09 00:13:53;;;;;;;2.70;2.50;;;;;;;;;;5001935;28;20034;-79
2023/12/09 00:16:18;;;;;;;2.13;2.00;;;;;;;;;;5005514;28;20030;-80
2023/12/09 00:18:44;;;;;;;2.13;1.92;;;;;;;;;;5000243;28;20035;-80
2023/12/09 00:21:10;;;;;;;3.95;2.00;;;;;;;;;;5009992;28;20106;-80
2023/12/09 00:23:36;;;;;;;1.73;1.63;;;;;;;;;;5005034;28;20054;-79
2023/12/09 00:26:01;;;;;;;2.40;2.10;;;;;;;;;;5002328;28;20071;-80
2023/12/09 00:28:26;;;;;;;1.85;1.50;;;;;;;;;;5004754;28;20038;-79
2023/12/09 00:30:52;;;;;;;2.58;2.03;;;;;;;;;;4993247;28;20038;-79
2023/12/09 00:33:17;;;;;;;2.22;1.88;;;;;;;;;;5004177;28;20029;-82
2023/12/09 00:35:42;;;;;;;2.50;2.13;;;;;;;;;;5009122;28;20108;-79
2023/12/09 00:38:07;;;;;;;3.45;2.00;;;;;;;;;;5009546;28;20026;-79
2023/12/09 00:40:33;;;;;;;1.58;1.48;;;;;;;;;;5003659;28;20316;-79
2023/12/09 00:42:58;;;;;;;1.80;1.50;;;;;;;;;;5006895;28;20049;-79
2023/12/09 00:45:25;;;;;;;1.70;1.60;;;;;;;;;;5002770;28;20038;-81
2023/12/09 00:47:50;;;;;;;2.17;1.90;;;;;;;;;;5003521;28;20057;-80
2023/12/09 00:50:16;;;;;;;2.60;1.90;;;;;;;;;;5009293;28;20518;-79
2023/12/09 00:52:41;;;;;;;3.33;1.77;;;;;;;;;;5004800;28;20030;-78
2023/12/09 00:55:07;;;;;;;1.98;1.63;;;;;;;;;;5009559;28;20034;-79
2023/12/09 00:57:32;;;;;;;5.03;2.20;;;;;;;;;;5004629;28;20030;-79
2023/12/09 00:59:57;;;;;;;2.17;1.98;;;;;;;;;;5015556;28;20044;-79
2023/12/09 01:02:22;;;;;;;1.67;1.58;;;;;;;;;;4985824;28;20122;-80
2023/12/09 01:04:48;;;;;;;3.15;2.22;;;;;;;;;;5012240;28;20122;-79
2023/12/09 01:07:13;;;;;;;2.08;1.92;;;;;;;;;;5006585;28;20042;-80
2023/12/09 01:09:38;;;;;;;1.75;1.65;;;;;;;;;;5009110;28;20042;-79
2023/12/09 01:12:04;;;;;;;2.28;2.08;;;;;;;;;;4999608;28;20109;-79
2023/12/09 01:14:29;;;;;;;2.33;2.00;;;;;;;;;;5041585;23;20045;-82
2023/12/09 01:16:54;;;;;;;2.38;2.17;;;;;;;;;;5025438;28;20041;-82
2023/12/09 01:19:20;;;;;;;2.30;1.88;;;;;;;;;;5032053;28;20033;-83
2023/12/09 01:21:45;;;;;;;1.90;1.80;;;;;;;;;;5035842;28;20038;-82
2023/12/09 01:24:10;;;;;;;2.13;2.03;;;;;;;;;;5026685;28;20033;-82
2023/12/09 01:26:36;;;;;;;4.00;2.08;;;;;;;;;;5035477;28;20021;-85
2023/12/09 01:29:03;;;;;;;3.03;2.30;;;;;;;;;;5035716;28;20030;-83
2023/12/09 01:31:28;;;;;;;2.35;2.13;;;;;;;;;;5033265;28;20058;-84
2023/12/09 01:33:53;;;;;;;3.60;2.08;;;;;;;;;;5011726;28;20049;-83
2023/12/09 01:36:19;;;;;;;5.20;2.50;;;;;;;;;;5025253;28;20087;-84
2023/12/09 01:38:44;;;;;;;2.00;1.90;;;;;;;;;;5035135;28;20055;-83
2023/12/09 01:41:09;;;;;;;2.85;1.85;;;;;;;;;;5028216;28;20497;-84
2023/12/09 01:43:35;;;;;;;1.90;1.80;;;;;;;;;;5030448;28;20397;-83
2023/12/09 01:46:06;;;;;;;2.00;1.90;;;;;;;;;;5026757;28;20113;-83
2023/12/09 01:48:36;;;;;;;2.13;1.58;;;;;;;;;;5034261;28;20022;-83
2023/12/09 01:51:03;;;;;;;11.27;2.30;;;;;;;;;;5024688;28;20038;-83
2023/12/09 01:53:30;;;;;;;2.03;1.70;;;;;;;;;;5030992;28;20038;-82
2023/12/09 01:55:59;;;;;;;1.88;1.77;;;;;;;;;;5035718;28;20569;-83
2023/12/09 01:58:25;;;;;;;1.83;1.70;;;;;;;;;;5022025;28;20038;-84
2023/12/09 02:00:51;;;;;;;2.55;1.35;;;;;;;;;;5035365;28;20057;-82
2023/12/09 02:03:18;;;;;;;2.40;2.20;;;;;;;;;;5038831;28;20025;-82
2023/12/09 02:05:44;;;;;;;2.70;2.10;;;;;;;;;;5006702;28;20092;-84
2023/12/09 02:08:09;;;;;;;3.50;2.30;;;;;;;;;;5011985;28;20478;-84
2023/12/09 02:10:34;;;;;;;4.60;2.10;;;;;;;;;;5029127;28;20042;-84
2023/12/09 02:13:06;;;;;;;2.38;1.90;;;;;;;;;;5026327;28;20033;-84
2023/12/09 02:15:40;;;;;;;1.90;1.77;;;;;;;;;;5023428;28;20130;-83
2023/12/09 02:18:06;;;;;;;3.20;1.92;;;;;;;;;;5038194;28;20037;-83
2023/12/09 02:20:32;;;;;;;3.83;2.10;;;;;;;;;;5039682;28;20017;-82
2023/12/09 02:23:06;;;;;;;4.57;1.73;;;;;;;;;;5032125;28;20049;-82
2023/12/09 02:25:32;;;;;;;;;;;;;;;;;;5029312;28;20034;-82
2023/12/09 02:28:00;;;;;;;6.22;1.67;;;;;;;;;;5013530;28;20377;-84
2023/12/09 02:30:36;;;;;;;2.13;1.92;;;;;;;;;;5033384;28;20056;-84
2023/12/09 02:33:04;;;;;;;2.17;2.00;;;;;;;;;;5031712;28;20033;-82
2023/12/09 02:35:34;;;;;;;2.20;1.88;;;;;;;;;;5036996;28;20064;-83
2023/12/09 02:38:01;;;;;;;2.13;1.80;;;;;;;;;;5029281;28;20041;-83
2023/12/09 02:40:27;;;;;;;2.42;1.83;;;;;;;;;;5029724;28;20037;-81
2023/12/09 02:42:53;;;;;;;3.22;2.03;;;;;;;;;;5007024;28;20030;-83
2023/12/09 02:45:21;;;;;;;2.38;2.17;;;;;;;;;;5013827;28;20026;-84
2023/12/09 02:47:47;;;;;;;3.78;2.17;;;;;;;;;;5028493;28;20040;-82
2023/12/09 02:50:13;;;;;;;2.55;2.00;;;;;;;;;;5002278;28;20053;-82
2023/12/09 02:52:39;;;;;;;2.67;1.80;;;;;;;;;;5022935;28;20037;-83
2023/12/09 02:55:05;;;;;;;2.47;2.05;;;;;;;;;;5031571;28;20038;-82
2023/12/09 02:57:31;;;;;;;1.95;1.65;;;;;;;;;;5024380;28;20064;-84
2023/12/09 02:59:56;;;;;;;2.45;1.90;;;;;;;;;;5027091;28;20017;-82
2023/12/09 03:02:21;;;;;;;3.58;2.42;;;;;;;;;;5035462;28;20525;-81
2023/12/09 03:04:46;;;;;;;4.20;2.13;;;;;;;;;;5025554;28;20056;-82
2023/12/09 03:07:12;;;;;;;2.20;2.00;;;;;;;;;;5027032;28;20042;-82
2023/12/09 03:09:37;;;;;;;5.47;2.88;;;;;;;;;;5037276;28;20456;-81
2023/12/09 03:12:03;;;;;;;2.20;2.10;;;;;;;;;;5020671;28;20040;-81
2023/12/09 03:14:28;;;;;;;7.60;2.40;;;;;;;;;;5017198;28;20061;-83
2023/12/09 03:16:54;;;;;;;2.50;2.30;;;;;;;;;;5024502;28;20489;-83
2023/12/09 03:19:19;;;;;;;2.70;2.50;;;;;;;;;;5032410;28;20033;-83
2023/12/09 03:21:45;;;;;;;6.40;2.45;;;;;;;;;;5039521;28;20076;-82
2023/12/09 03:24:10;;;;;;;3.97;2.67;;;;;;;;;;5038933;28;20033;-81
2023/12/09 03:26:35;;;;;;;5.50;2.50;;;;;;;;;;5020798;28;20086;-81
2023/12/09 03:29:01;;;;;;;3.95;2.85;;;;;;;;;;5024385;28;20045;-82
2023/12/09 03:31:26;;;;;;;6.80;3.15;;;;;;;;;;5023487;28;20069;-82
2023/12/09 03:33:51;;;;;;;8.07;3.50;;;;;;;;;;5027629;28;20041;-82
2023/12/09 03:36:16;;;;;;;7.40;3.85;;;;;;;;;;5027518;28;20022;-82
2023/12/09 03:38:42;;;;;;;13.60;3.30;;;;;;;;;;5039685;28;20064;-82
2023/12/09 03:41:08;;;;;;;10.10;3.33;;;;;;;;;;5025637;28;20117;-82
2023/12/09 03:43:34;;;;;;;6.38;4.07;;;;;;;;;;5031577;28;20045;-81
2023/12/09 03:45:59;;;;;;;6.82;3.80;;;;;;;;;;5030029;28;20048;-82
2023/12/09 03:48:28;;;;;;;10.52;4.45;;;;;;;;;;5039422;28;20041;-81
2023/12/09 03:50:53;;;;;;;9.63;4.07;;;;;;;;;;5032532;28;20052;-81
2023/12/09 03:53:19;;;;;;;13.48;3.92;;;;;;;;;;5031983;28;20030;-81
2023/12/09 03:55:44;;;;;;;5.53;3.70;;;;;;;;;;5030581;28;20041;-82
2023/12/09 03:58:10;;;;;;;9.80;4.07;;;;;;;;;;5031218;28;20107;-82
2023/12/09 04:00:36;;;;;;;5.55;3.88;;;;;;;;;;5022315;28;20577;-82
2023/12/09 04:03:02;;;;;;;13.73;5.07;;;;;;;;;;5027819;28;20042;-82
2023/12/09 04:05:28;;;;;;;9.20;4.35;;;;;;;;;;5028076;28;20051;-81
2023/12/09 04:07:53;;;;;;;9.23;3.92;;;;;;;;;;5035491;28;20093;-80
2023/12/09 04:10:18;;;;;;;12.57;4.63;;;;;;;;;;5031291;28;20026;-82
2023/12/09 04:12:44;;;;;;;12.13;5.63;;;;;;;;;;5023209;28;20045;-81
2023/12/09 04:15:11;;;;;;;9.23;4.22;;;;;;;;;;5009263;28;20022;-81
2023/12/09 04:17:36;;;;;;;5.55;3.60;;;;;;;;;;5004145;28;20444;-83
2023/12/09 04:20:04;;;;;;;6.60;3.90;;;;;;;;;;5033180;28;20057;-80
2023/12/09 04:22:29;;;;;;;9.13;4.00;;;;;;;;;;5031690;28;20037;-81
2023/12/09 04:24:54;;;;;;;10.63;5.25;;;;;;;;;;5028550;28;20034;-83
2023/12/09 04:27:19;;;;;;;12.20;4.80;;;;;;;;;;5024087;28;20052;-82
2023/12/09 04:29:45;;;;;;;8.32;4.68;;;;;;;;;;5021614;28;20033;-81
2023/12/09 04:32:10;;;;;;;11.10;4.53;;;;;;;;;;5030969;28;20093;-81
2023/12/09 04:34:37;;;;;;;7.03;3.95;;;;;;;;;;5040852;28;20036;-81
2023/12/09 04:37:03;;;;;;;10.05;3.78;;;;;;;;;;5040213;28;20053;-81
2023/12/09 04:39:28;;;;;;;8.75;4.22;;;;;;;;;;5013532;28;20061;-81
2023/12/09 04:41:53;;;;;;;6.47;3.85;;;;;;;;;;5033617;28;20067;-80
2023/12/09 04:44:19;;;;;;;7.95;3.95;;;;;;;;;;5025816;28;20026;-80
2023/12/09 04:46:44;;;;;;;7.82;3.47;;;;;;;;;;5022759;28;20512;-83
2023/12/09 04:49:10;;;;;;;8.90;4.32;;;;;;;;;;5026373;28;20492;-81
2023/12/09 04:51:36;;;;;;;11.85;4.13;;;;;;;;;;5029403;28;20036;-82
2023/12/09 04:54:01;;;;;;;8.18;3.88;;;;;;;;;;5036749;28;20281;-81
2023/12/09 04:56:26;;;;;;;11.30;4.60;;;;;;;;;;5011328;28;20033;-81
2023/12/09 04:58:51;;;;;;;7.80;3.78;;;;;;;;;;5029438;28;20030;-82
2023/12/09 05:01:17;;;;;;;10.88;4.07;;;;;;;;;;5013094;28;20037;-82
2023/12/09 05:03:42;;;;;;;6.00;3.67;;;;;;;;;;5032448;28;20034;-81
2023/12/09 05:06:08;;;;;;;7.30;4.25;;;;;;;;;;5031851;28;20059;-81
2023/12/09 05:08:33;;;;;;;7.00;3.85;;;;;;;;;;5003773;28;20568;-81
2023/12/09 05:10:58;;;;;;;8.18;4.00;;;;;;;;;;5020942;28;20081;-82
2023/12/09 05:13:24;;;;;;;8.00;4.20;;;;;;;;;;5029846;28;20049;-81
2023/12/09 05:15:49;;;;;;;7.55;4.07;;;;;;;;;;5025018;28;20045;-82
2023/12/09 05:18:14;;;;;;;9.80;4.22;;;;;;;;;;5026875;28;20112;-82
2023/12/09 05:20:40;;;;;;;6.60;4.00;;;;;;;;;;5036464;28;20029;-81
2023/12/09 05:23:06;;;;;;;16.77;4.18;;;;;;;;;;5030854;28;20041;-81
2023/12/09 05:25:31;;;;;;;6.65;3.67;;;;;;;;;;5032988;28;20025;-81
2023/12/09 05:27:57;;;;;;;7.65;4.47;;;;;;;;;;5031117;28;20030;-81
2023/12/09 05:30:22;;;;;;;16.00;4.10;;;;;;;;;;5030474;28;20042;-81
2023/12/09 05:32:50;;;;;;;8.50;3.75;;;;;;;;;;5024953;28;20022;-80
2023/12/09 05:35:15;;;;;;;8.43;3.92;;;;;;;;;;5025815;28;20049;-81
2023/12/09 05:37:41;;;;;;;9.68;4.18;;;;;;;;;;5032113;28;20046;-80
2023/12/09 05:40:08;;;;;;;5.80;3.47;;;;;;;;;;5029963;28;20050;-81
2023/12/09 05:42:33;;;;;;;6.00;2.40;;;;;;;;;;5027429;28;20061;-80
2023/12/09 05:44:58;;;;;;;8.38;2.28;;;;;;;;;;5027778;28;20028;-81
2023/12/09 05:47:24;;;;;;;5.00;2.80;;;;;;;;;;5020803;28;20037;-81
2023/12/09 05:49:50;;;;;;;5.05;3.00;;;;;;;;;;5023839;28;20058;-82
2023/12/09 05:52:15;;;;;;;9.23;3.30;;;;;;;;;;5025296;28;20497;-82
2023/12/09 05:54:40;;;;;;;4.78;2.97;;;;;;;;;;5026400;28;20022;-82
2023/12/09 05:57:06;;;;;;;6.50;3.20;;;;;;;;;;5030852;28;20371;-83
2023/12/09 05:59:31;;;;;;;7.68;3.08;;;;;;;;;;5021850;28;20021;-83
2023/12/09 06:01:56;;;;;;;2.88;2.55;;;;;;;;;;5032681;28;20131;-82
2023/12/09 06:04:21;;;;;;;11.77;3.00;;;;;;;;;;5015289;28;20053;-81
2023/12/09 06:06:47;;;;;;;7.47;2.85;;;;;;;;;;5039648;28;20250;-81
2023/12/09 06:09:12;;;;;;;6.07;2.58;;;;;;;;;;5026784;28;20097;-81
2023/12/09 06:11:37;;;;;;;4.05;2.65;;;;;;;;;;5019813;28;20037;-81
2023/12/09 06:14:03;;;;;;;8.65;2.63;;;;;;;;;;5042225;28;20034;-81
2023/12/09 06:16:28;;;;;;;4.85;2.42;;;;;;;;;;5043745;28;20041;-81
2023/12/09 06:18:54;;;;;;;6.10;3.10;;;;;;;;;;5032341;28;20064;-82
2023/12/09 06:21:24;;;;;;;7.57;2.85;;;;;;;;;;5032465;28;21256;-82
2023/12/09 06:23:50;;;;;;;8.38;3.20;;;;;;;;;;5030012;28;20080;-82
2023/12/09 06:26:16;;;;;;;5.22;3.15;;;;;;;;;;5014662;28;20093;-81
2023/12/09 06:28:41;;;;;;;3.00;2.72;;;;;;;;;;5037841;28;20048;-82
2023/12/09 06:31:06;;;;;;;6.45;3.05;;;;;;;;;;5034113;28;20053;-82
2023/12/09 06:33:33;;;;;;;7.95;2.53;;;;;;;;;;5044098;28;20034;-82
2023/12/09 06:35:58;;;;;;;4.97;2.45;;;;;;;;;;5039368;28;20032;-82
2023/12/09 06:38:25;;;;;;;2.83;1.92;;;;;;;;;;5045033;28;20021;-81
2023/12/09 06:40:50;;;;;;;4.60;2.40;;;;;;;;;;5041286;28;20045;-81
2023/12/09 06:43:15;;;;;;;14.55;2.70;;;;;;;;;;5039812;28;20300;-82
2023/12/09 06:45:41;;;;;;;4.90;2.20;;;;;;;;;;5044191;28;20528;-80
2023/12/09 06:48:06;;;;;;;2.45;2.25;;;;;;;;;;5035105;28;20026;-82
2023/12/09 06:50:31;;;;;;;6.38;2.40;;;;;;;;;;5029022;28;20022;-82
2023/12/09 06:52:59;;;;;;;6.45;1.92;;;;;;;;;;5033327;28;20052;-83
2023/12/09 06:55:24;;;;;;;12.73;3.13;;;;;;;;;;5039531;28;20122;-82
2023/12/09 06:57:50;;;;;;;5.00;2.70;;;;;;;;;;5037318;28;20042;-82
2023/12/09 07:00:15;;;;;;;8.48;3.30;;;;;;;;;;5033305;28;20018;-81
2023/12/09 07:02:42;;;;;;;7.50;3.63;;;;;;;;;;5039055;28;20025;-81
2023/12/09 07:05:13;;;;;;;7.65;3.28;;;;;;;;;;5031843;28;20034;-81
2023/12/09 07:07:42;;;;;;;4.82;3.42;;;;;;;;;;5029395;28;20116;-82
2023/12/09 07:10:08;;;;;;;5.80;3.35;;;;;;;;;;5041085;28;20088;-82
2023/12/09 07:12:33;;;;;;;7.60;3.03;;;;;;;;;;5032560;28;20088;-82
2023/12/09 07:14:59;;;;;;;6.93;3.35;;;;;;;;;;5059718;23;20053;-82
2023/12/09 07:17:24;;;;;;;4.97;3.25;;;;;;;;;;5051088;28;20029;-82
2023/12/09 07:19:52;;;;;;;5.43;3.42;;;;;;;;;;5045456;28;20041;-82
2023/12/09 07:22:18;;;;;;;7.15;3.35;;;;;;;;;;5053317;28;20063;-81
2023/12/09 07:24:43;;;;;;;13.25;2.90;;;;;;;;;;5048291;28;20029;-82
2023/12/09 07:27:08;;;;;;;5.00;2.90;;;;;;;;;;5062874;28;20178;-82
2023/12/09 07:29:33;;;;;;;9.57;2.28;;;;;;;;;;5057921;28;20083;-82
2023/12/09 07:32:00;;;;;;;6.43;2.67;;;;;;;;;;5052754;28;20044;-82
2023/12/09 07:34:25;;;;;;;4.57;2.63;;;;;;;;;;5057184;28;20523;-82
2023/12/09 07:36:50;;;;;;;4.05;3.25;;;;;;;;;;5050050;28;20148;-82
2023/12/09 07:39:17;;;;;;;6.18;3.25;;;;;;;;;;5054598;28;20032;-82
2023/12/09 07:41:43;;;;;;;3.55;2.42;;;;;;;;;;5042410;28;20618;-82
2023/12/09 07:44:09;;;;;;;4.97;2.50;;;;;;;;;;5049861;28;20305;-82
2023/12/09 07:46:35;;;;;;;4.63;2.30;;;;;;;;;;5050018;28;20033;-82
2023/12/09 07:49:00;;;;;;;6.18;2.70;;;;;;;;;;5051413;28;20041;-82
2023/12/09 07:51:25;;;;;;;5.10;2.45;;;;;;;;;;5039251;28;20052;-82
2023/12/09 07:53:50;;;;;;;6.53;2.72;;;;;;;;;;5056665;28;20084;-82
2023/12/09 07:56:16;;;;;;;3.40;2.40;;;;;;;;;;5058607;28;20026;-82
2023/12/09 07:58:41;;;;;;;6.70;3.60;;;;;;;;;;5040169;28;20036;-82
2023/12/09 08:01:06;;;;;;;3.83;2.30;;;;;;;;;;5043711;28;20100;-82
2023/12/09 08:03:34;;;;;;;4.88;2.75;;;;;;;;;;5057094;28;20102;-82
2023/12/09 08:06:00;;;;;;;5.07;3.72;;;;;;;;;;5045961;28;20024;-83
2023/12/09 08:08:25;;;;;;;3.45;3.15;;;;;;;;;;5016221;28;20099;-83
2023/12/09 08:10:50;;;;;;;2.80;2.22;;;;;;;;;;5035705;28;20041;-83
2023/12/09 08:13:15;;;;;;;3.53;2.42;;;;;;;;;;5043671;28;20472;-83
2023/12/09 08:15:41;;;;;;;3.38;2.78;;;;;;;;;;5050916;28;20110;-83
2023/12/09 08:18:06;;;;;;;6.22;4.45;;;;;;;;;;5043584;28;20029;-82
2023/12/09 08:20:31;;;;;;;9.73;5.05;;;;;;;;;;5049941;28;20433;-83
2023/12/09 08:22:56;;;;;;;11.77;6.18;;;;;;;;;;5052671;28;20037;-83
2023/12/09 08:25:22;;;;;;;7.07;6.32;;;;;;;;;;5062226;28;20033;-83
2023/12/09 08:27:47;;;;;;;12.43;5.90;;;;;;;;;;5053588;28;20061;-83
2023/12/09 08:30:12;;;;;;;14.38;4.90;;;;;;;;;;5034788;28;20108;-83
2023/12/09 08:32:39;;;;;;;8.43;4.88;;;;;;;;;;5045982;28;20037;-82
2023/12/09 08:35:06;;;;;;;7.00;3.75;;;;;;;;;;5031716;28;20057;-83
2023/12/09 08:37:31;;;;;;;4.97;2.50;;;;;;;;;;5044160;28;20425;-83
2023/12/09 08:40:01;;;;;;;7.97;2.80;;;;;;;;;;5049254;28;20033;-83
2023/12/09 08:42:27;;;;;;;5.75;2.30;;;;;;;;;;5055966;28;20041;-83
2023/12/09 08:44:52;;;;;;;7.60;2.10;;;;;;;;;;5048362;28;20469;-83
2023/12/09 08:47:18;;;;;;;11.35;5.38;;;;;;;;;;5030829;28;20038;-82
2023/12/09 08:49:43;;;;;;;4.45;2.20;;;;;;;;;;5047276;28;20042;-82
2023/12/09 08:52:08;;;;;;;4.88;1.90;;;;;;;;;;5051086;28;20057;-82
2023/12/09 08:54:34;;;;;;;4.65;1.85;;;;;;;;;;5052172;28;20045;-82
2023/12/09 08:56:59;;;;;;;14.50;1.90;;;;;;;;;;5045832;28;20033;-82
2023/12/09 08:59:25;;;;;;;4.97;2.03;;;;;;;;;;5050629;28;20057;-82
2023/12/09 09:01:51;;;;;;;1.73;1.63;;;;;;;;;;5044271;28;20041;-82
2023/12/09 09:04:18;;;;;;;2.03;1.55;;;;;;;;;;5050402;28;20021;-82
2023/12/09 09:06:43;;;;;;;2.50;1.63;;;;;;;;;;5050092;28;20042;-82
2023/12/09 09:09:11;;;;;;;2.25;2.03;;;;;;;;;;5037349;28;20026;-83
2023/12/09 09:11:36;;;;;;;8.52;2.88;;;;;;;;;;5044351;28;20318;-83
2023/12/09 09:14:02;;;;;;;5.40;2.88;;;;;;;;;;5042601;28;20037;-83
2023/12/09 09:16:27;;;;;;;5.93;1.70;;;;;;;;;;5047589;28;20034;-82
2023/12/09 09:18:52;;;;;;;3.75;1.92;;;;;;;;;;5058840;28;20029;-82
2023/12/09 09:21:17;;;;;;;3.92;1.63;;;;;;;;;;5061639;28;20469;-82
2023/12/09 09:23:43;;;;;;;2.13;1.85;;;;;;;;;;5051030;28;20024;-83
2023/12/09 09:26:09;;;;;;;2.42;1.30;;;;;;;;;;5052670;28;20045;-83
2023/12/09 09:28:34;;;;;;;2.53;1.55;;;;;;;;;;5046508;28;20067;-82
2023/12/09 09:30:59;;;;;;;5.25;1.80;;;;;;;;;;5041839;28;20097;-83
2023/12/09 09:33:25;;;;;;;1.50;1.38;;;;;;;;;;5058751;28;20124;-83
2023/12/09 09:35:52;;;;;;;4.10;1.30;;;;;;;;;;5050554;28;20032;-83
2023/12/09 09:38:18;;;;;;;1.98;1.20;;;;;;;;;;5049617;28;20093;-83
2023/12/09 09:40:44;;;;;;;3.65;1.13;;;;;;;;;;5049980;28;20041;-83
2023/12/09 09:43:15;;;;;;;2.35;1.50;;;;;;;;;;5055217;28;20032;-83
2023/12/09 09:45:44;;;;;;;3.53;1.40;;;;;;;;;;5039485;28;20034;-83
2023/12/09 09:48:12;;;;;;;2.90;1.65;;;;;;;;;;5060024;28;20030;-83
2023/12/09 09:50:44;;;;;;;3.58;1.00;;;;;;;;;;5049899;28;20025;-83
2023/12/09 09:53:12;;;;;;;1.40;1.00;;;;;;;;;;5045302;28;20037;-83
2023/12/09 09:55:40;;;;;;;3.50;1.00;;;;;;;;;;5035591;28;20032;-82
2023/12/09 09:58:05;;;;;;;3.35;0.93;;;;;;;;;;5054549;28;20124;-82
2023/12/09 10:00:30;;;;;;;1.88;1.40;;;;;;;;;;5044907;28;20028;-83
2023/12/09 10:02:56;;;;;;;3.55;0.80;;;;;;;;;;5062434;28;20033;-83
2023/12/09 10:05:21;;;;;;;1.75;0.85;;;;;;;;;;5045849;28;20393;-83
2023/12/09 10:07:47;;;;;;;2.15;1.13;;;;;;;;;;5052847;28;20040;-83
2023/12/09 10:10:14;;;;;;;2.55;0.90;;;;;;;;;;5057307;28;20033;-82
2023/12/09 10:12:40;;;;;;;1.55;0.90;;;;;;;;;;5036948;28;20032;-83
2023/12/09 10:15:06;;;;;;;1.10;0.77;;;;;;;;;;5049065;28;20497;-81
2023/12/09 10:17:32;;;;;;;2.72;1.20;;;;;;;;;;5054256;28;20098;-81
2023/12/09 10:19:58;;;;;;;4.47;1.00;;;;;;;;;;5061092;28;20037;-81
2023/12/09 10:22:28;;;;;;;2.50;0.90;;;;;;;;;;5062633;28;20099;-81
2023/12/09 10:24:54;;;;;;;2.60;1.10;;;;;;;;;;5060653;28;20037;-83
2023/12/09 10:27:23;;;;;;;2.63;0.90;;;;;;;;;;5049231;28;20025;-81
2023/12/09 10:29:50;;;;;;;2.85;1.25;;;;;;;;;;5050935;28;20040;-82
2023/12/09 10:32:15;;;;;;;2.00;1.05;;;;;;;;;;5045362;28;20039;-81
2023/12/09 10:34:44;;;;;;;1.92;0.82;;;;;;;;;;5035529;28;20026;-81
2023/12/09 10:37:09;;;;;;;0.70;0.70;;;;;;;;;;5044842;28;20036;-81
2023/12/09 10:39:35;;;;;;;2.03;1.17;;;;;;;;;;5045608;28;20025;-81
2023/12/09 10:42:03;;;;;;;4.82;1.85;;;;;;;;;;5062014;28;20061;-81
2023/12/09 10:44:30;;;;;;;5.63;1.73;;;;;;;;;;5039511;28;20044;-83
2023/12/09 10:46:55;;;;;;;2.38;1.30;;;;;;;;;;5042489;28;20053;-81
2023/12/09 10:49:20;;;;;;;2.72;1.73;;;;;;;;;;5037118;28;20039;-81
2023/12/09 10:51:46;;;;;;;1.50;1.40;;;;;;;;;;5046131;28;20037;-82
2023/12/09 10:54:11;;;;;;;2.03;1.60;;;;;;;;;;5058477;28;20020;-82
2023/12/09 10:56:37;;;;;;;2.83;1.90;;;;;;;;;;5059902;28;20036;-82
2023/12/09 10:59:04;;;;;;;1.50;1.40;;;;;;;;;;5045858;28;20504;-81
2023/12/09 11:01:29;;;;;;;2.90;1.45;;;;;;;;;;5047763;28;20113;-81
2023/12/09 11:03:56;;;;;;;2.15;1.58;;;;;;;;;;5040797;28;20204;-82
2023/12/09 11:06:23;;;;;;;4.25;1.23;;;;;;;;;;5057119;28;20031;-81
2023/12/09 11:08:49;;;;;;;2.50;1.45;;;;;;;;;;5048450;28;20033;-82
2023/12/09 11:11:15;;;;;;;2.92;1.70;;;;;;;;;;5062073;28;20405;-82
2023/12/09 11:13:46;;;;;;;3.28;1.50;;;;;;;;;;5046237;28;20033;-81
2023/12/09 11:16:18;;;;;;;4.70;1.60;;;;;;;;;;5050694;28;20524;-81
2023/12/09 11:18:49;;;;;;;5.00;1.45;;;;;;;;;;5044595;28;20029;-82
2023/12/09 11:21:16;;;;;;;2.58;1.80;;;;;;;;;;5057307;28;20099;-81
2023/12/09 11:23:51;;;;;;;3.55;1.25;;;;;;;;;;5056003;28;20044;-82
2023/12/09 11:26:21;;;;;;;2.22;1.55;;;;;;;;;;5054125;28;20037;-82
2023/12/09 11:28:57;;;;;;;2.40;1.40;;;;;;;;;;5040202;28;20052;-82
2023/12/09 11:31:30;;;;;;;4.20;2.50;;;;;;;;;;5045833;28;20275;-82
2023/12/09 11:33:55;;;;;;;13.35;5.00;;;;;;;;;;5031769;28;20036;-82
2023/12/09 11:36:23;;;;;;;2.10;1.70;;;;;;;;;;5053910;28;20078;-81
2023/12/09 11:38:48;;;;;;;2.50;1.38;;;;;;;;;;5036190;28;20025;-81
2023/12/09 11:41:14;;;;;;;3.45;1.40;;;;;;;;;;5040714;28;20034;-81
2023/12/09 11:43:40;;;;;;;1.77;1.08;;;;;;;;;;5050443;28;20029;-84
2023/12/09 11:46:06;;;;;;;1.98;1.00;;;;;;;;;;5048652;28;20037;-81
2023/12/09 11:48:31;;;;;;;2.53;1.20;;;;;;;;;;5041040;28;20033;-81
2023/12/09 11:51:02;;;;;;;5.05;1.45;;;;;;;;;;5048076;28;20406;-81
2023/12/09 11:53:27;;;;;;;1.33;1.17;;;;;;;;;;5049444;28;20033;-81
2023/12/09 11:55:53;;;;;;;4.80;1.48;;;;;;;;;;5044165;28;20064;-82
2023/12/09 11:58:19;;;;;;;1.92;1.40;;;;;;;;;;5044762;28;20050;-82
2023/12/09 12:00:44;;;;;;;2.47;1.30;;;;;;;;;;5036662;28;20049;-82
2023/12/09 12:03:09;;;;;;;2.15;1.30;;;;;;;;;;5051242;28;20088;-82
2023/12/09 12:05:36;;;;;;;3.00;1.20;;;;;;;;;;5045390;28;20032;-82
2023/12/09 12:08:01;;;;;;;1.75;1.40;;;;;;;;;;5032801;28;20037;-82
2023/12/09 12:10:26;;;;;;;2.95;1.00;;;;;;;;;;5042333;28;20092;-82
2023/12/09 12:12:52;;;;;;;3.17;1.17;;;;;;;;;;5040393;28;20037;-82
2023/12/09 12:15:17;;;;;;;3.17;1.23;;;;;;;;;;5028402;28;20052;-82
2023/12/09 12:17:42;;;;;;;2.70;1.20;;;;;;;;;;5048398;28;20014;-82
2023/12/09 12:20:10;;;;;;;2.05;1.00;;;;;;;;;;5048219;28;20037;-82
2023/12/09 12:22:36;;;;;;;2.95;0.90;;;;;;;;;;5050611;28;20029;-82
2023/12/09 12:25:01;;;;;;;2.72;0.93;;;;;;;;;;5048663;28;20040;-82
2023/12/09 12:27:26;;;;;;;2.00;1.10;;;;;;;;;;5043448;28;20029;-82
2023/12/09 12:29:51;;;;;;;0.70;0.70;;;;;;;;;;5036469;28;20049;-82
2023/12/09 12:32:17;;;;;;;1.83;1.30;;;;;;;;;;5056417;28;20132;-82
2023/12/09 12:34:45;;;;;;;2.05;1.15;;;;;;;;;;5050904;28;20029;-82
2023/12/09 12:37:10;;;;;;;1.38;1.10;;;;;;;;;;5042736;28;20097;-82
2023/12/09 12:39:37;;;;;;;1.23;1.13;;;;;;;;;;5045430;28;20051;-82
2023/12/09 12:42:03;;;;;;;3.00;1.80;;;;;;;;;;5047394;28;20101;-82
2023/12/09 12:44:28;;;;;;;4.15;2.20;;;;;;;;;;5037813;28;20065;-82
2023/12/09 12:46:53;;;;;;;5.78;3.30;;;;;;;;;;5045482;28;20036;-82
2023/12/09 12:49:19;;;;;;;12.63;5.35;;;;;;;;;;5026762;28;20386;-82
2023/12/09 12:51:44;;;;;;;11.35;5.15;;;;;;;;;;5048969;28;20059;-83
2023/12/09 12:54:09;;;;;;;8.25;3.88;;;;;;;;;;5042578;28;20596;-82
2023/12/09 12:56:34;;;;;;;16.73;6.15;;;;;;;;;;5049760;28;20074;-82
2023/12/09 12:59:00;;;;;;;13.93;5.82;;;;;;;;;;5043411;28;20072;-82
2023/12/09 13:01:25;;;;;;;13.77;6.50;;;;;;;;;;5038912;28;20053;-82
2023/12/09 13:03:51;;;;;;;15.30;5.90;;;;;;;;;;5042906;28;20092;-83
2023/12/09 13:06:16;;;;;;;11.20;4.40;;;;;;;;;;5046892;28;20040;-82
2023/12/09 13:08:42;;;;;;;5.82;2.70;;;;;;;;;;5039626;28;20112;-82
2023/12/09 13:11:08;;;;;;;3.13;2.08;;;;;;;;;;5045648;28;20084;-82
2023/12/09 13:13:33;;;;;;;4.70;2.50;;;;;;;;;;5039086;28;20029;-82
2023/12/09 13:15:59;;;;;;;5.25;2.22;;;;;;;;;;5040052;28;20057;-82
2023/12/09 13:18:24;;;;;;;2.55;1.38;;;;;;;;;;5039669;28;20037;-82
2023/12/09 13:20:50;;;;;;;7.35;2.00;;;;;;;;;;5040040;28;20018;-82
2023/12/09 13:23:16;;;;;;;3.10;1.52;;;;;;;;;;5039460;28;20113;-82
2023/12/09 13:25:41;;;;;;;1.40;1.30;;;;;;;;;;5039429;28;20454;-82
2023/12/09 13:28:06;;;;;;;2.17;1.42;;;;;;;;;;5040199;28;20034;-82
2023/12/09 13:30:32;;;;;;;3.40;1.60;;;;;;;;;;5039673;28;20037;-82
2023/12/09 13:33:01;;;;;;;2.00;1.38;;;;;;;;;;5023026;28;20386;-83
2023/12/09 13:35:30;;;;;;;1.10;1.00;;;;;;;;;;5039828;28;20029;-82
2023/12/09 13:37:55;;;;;;;6.32;1.65;;;;;;;;;;5039582;28;20064;-82
2023/12/09 13:40:21;;;;;;;2.45;1.38;;;;;;;;;;5039817;28;20453;-82
2023/12/09 13:42:48;;;;;;;6.40;1.60;;;;;;;;;;5039611;28;20444;-83
2023/12/09 13:45:14;;;;;;;1.73;1.05;;;;;;;;;;5039189;28;20025;-83
2023/12/09 13:47:39;;;;;;;2.90;1.08;;;;;;;;;;5040200;28;20017;-83
2023/12/09 13:50:07;;;;;;;1.85;1.20;;;;;;;;;;5039142;28;20188;-83
2023/12/09 13:52:33;;;;;;;1.95;1.40;;;;;;;;;;5021733;28;20124;-83
2023/12/09 13:54:59;;;;;;;1.20;1.10;;;;;;;;;;5039015;28;20042;-83
2023/12/09 13:57:24;;;;;;;1.30;1.30;;;;;;;;;;5038923;28;20222;-82
2023/12/09 13:59:49;;;;;;;1.17;1.10;;;;;;;;;;5038443;28;20079;-83
2023/12/09 14:02:15;;;;;;;3.03;1.35;;;;;;;;;;5038642;28;20049;-83
2023/12/09 14:04:40;;;;;;;7.68;1.48;;;;;;;;;;5038199;28;20470;-83
2023/12/09 14:07:05;;;;;;;9.80;1.80;;;;;;;;;;5038264;28;20033;-82
2023/12/09 14:09:31;;;;;;;5.95;1.17;;;;;;;;;;5038064;28;20029;-82
2023/12/09 14:11:56;;;;;;;4.80;1.38;;;;;;;;;;5039208;28;20465;-85
2023/12/09 14:14:22;;;;;;;20.83;2.03;;;;;;;;;;5038007;28;20045;-82
2023/12/09 14:16:47;;;;;;;12.40;1.75;;;;;;;;;;5038038;28;20076;-83
2023/12/09 14:19:13;;;;;;;1.77;1.40;;;;;;;;;;5038316;28;20044;-83
2023/12/09 14:21:38;;;;;;;3.38;1.70;;;;;;;;;;5020595;28;20101;-82
2023/12/09 14:24:04;;;;;;;3.67;1.30;;;;;;;;;;5037395;28;20104;-82
2023/12/09 14:26:29;;;;;;;1.52;1.42;;;;;;;;;;5038981;28;20026;-83
2023/12/09 14:28:56;;;;;;;1.55;1.35;;;;;;;;;;5038483;28;20044;-83
2023/12/09 14:31:21;;;;;;;4.90;2.08;;;;;;;;;;5037105;28;20103;-83
2023/12/09 14:33:47;;;;;;;6.95;3.25;;;;;;;;;;5019796;28;20033;-83
2023/12/09 14:36:12;;;;;;;3.60;3.05;;;;;;;;;;5037276;28;20030;-83